createdAt,value
2022-10-10T00:14:14.250Z,10.5
2022-10-10T00:29:23.726Z,10.1
2022-10-10T00:44:33.177Z,10
2022-10-10T00:59:42.501Z,10
2022-10-10T01:14:51.975Z,9.9
2022-10-10T01:30:01.493Z,9.7
2022-10-10T01:45:12.585Z,9.5
2022-10-10T02:00:22.170Z,9.4
2022-10-10T02:15:31.624Z,9.4
2022-10-10T02:30:41.398Z,9.3
2022-10-10T02:45:50.421Z,9.1
2022-10-10T03:00:59.645Z,9
2022-10-10T03:16:09.153Z,9
2022-10-10T03:31:19.973Z,9
2022-10-10T03:46:29.636Z,9
2022-10-10T04:01:39.393Z,9
2022-10-10T04:16:49.721Z,9.1
2022-10-10T04:31:58.819Z,9.2
2022-10-10T04:47:08.088Z,9.2
2022-10-10T05:02:17.525Z,9.2
2022-10-10T05:17:27.155Z,9.2
2022-10-10T05:32:36.833Z,9.2
2022-10-10T05:47:46.137Z,9.2
2022-10-10T06:02:56.008Z,9.2
2022-10-10T06:18:06.212Z,9.3
2022-10-10T06:33:15.472Z,9.4
2022-10-10T06:48:25.165Z,9.6
2022-10-10T07:03:34.743Z,9.7
2022-10-10T07:18:44.847Z,9.9
2022-10-10T07:33:54.318Z,10.1
2022-10-10T07:49:04.082Z,10.4
2022-10-10T08:04:14.527Z,10.8
2022-10-10T08:21:55.294Z,11.9
2022-10-10T08:37:07.054Z,11.9
2022-10-10T08:52:16.399Z,12.2
2022-10-10T09:07:26.413Z,12.5
2022-10-10T09:22:35.857Z,12.8
2022-10-10T09:37:47.884Z,13.1
2022-10-10T09:52:57.947Z,13.4
2022-10-10T10:08:08.532Z,13.9
2022-10-10T10:23:19.171Z,14.4
2022-10-10T10:38:28.822Z,14.9
2022-10-10T10:53:38.657Z,15.4
2022-10-10T11:08:48.877Z,15.7
2022-10-10T11:23:58.438Z,15.9
2022-10-10T11:39:10.463Z,16.4
2022-10-10T11:54:28.653Z,18.3
2022-10-10T12:09:38.849Z,19.6
2022-10-10T12:24:50.190Z,19.4
2022-10-10T12:39:59.542Z,19.3
2022-10-10T12:55:08.752Z,19.1
2022-10-10T13:10:17.873Z,18.9
2022-10-10T13:25:28.357Z,19.7
2022-10-10T13:40:37.433Z,19.3
2022-10-10T13:55:46.179Z,19
2022-10-10T14:10:56.038Z,18.5
2022-10-10T14:26:05.700Z,18.1
2022-10-10T14:41:14.563Z,17.8
2022-10-10T14:56:24.060Z,17.6
2022-10-10T15:12:19.976Z,17.5
2022-10-10T15:30:26.009Z,17.1
2022-10-10T15:45:54.764Z,17.2
2022-10-10T16:01:06.775Z,17.1
2022-10-10T16:18:51.060Z,17.6
2022-10-10T16:34:02.028Z,16.9
2022-10-10T16:49:10.711Z,16.7
2022-10-10T17:04:19.626Z,16.1
2022-10-10T17:19:28.713Z,15.8
2022-10-10T17:34:38.376Z,15.2
2022-10-10T17:49:47.629Z,14.9
2022-10-10T18:04:56.827Z,14.7
2022-10-10T18:20:06.435Z,14.5
2022-10-10T18:35:16.033Z,14.4
2022-10-10T18:50:25.232Z,14.3
2022-10-10T19:05:35.204Z,14.2
2022-10-10T19:20:44.504Z,14.1
2022-10-10T19:35:53.674Z,14
2022-10-10T19:51:02.767Z,13.9
2022-10-10T20:06:15.397Z,13.7
2022-10-10T20:21:24.982Z,13.5
2022-10-10T20:36:34.505Z,13.1
2022-10-10T20:51:44.086Z,12.8
2022-10-10T21:06:53.417Z,12.5
2022-10-10T21:22:02.731Z,12.2
2022-10-10T21:37:14.553Z,11.9
2022-10-10T21:52:25.133Z,11.7
2022-10-10T22:07:34.235Z,11.5
2022-10-10T22:22:43.594Z,11.4
2022-10-10T22:37:53.480Z,11.2
2022-10-10T22:53:02.581Z,11
2022-10-10T23:08:11.903Z,10.9
2022-10-10T23:23:21.106Z,10.7
2022-10-10T23:38:30.298Z,10.6
2022-10-10T23:53:39.200Z,10.5
